Check out our new BloomSky Weather System.

Active alerts


No alerts


Thunder radar  blitzortung!


Rain radar more information rain snow radar


Visit our other weather sites:

Template documentation
and downloads

And another site



Weather Underground History page Text

Daily Summary for August 4, 2017 Units:  English    Metric   Both
« Previous Day
Next Day »
Daily Weekly Monthly Yearly Custom
  High: Low: Average:
Temperature: 91.4 °F 76.3 °F 82.3 °F
Dew Point: 79.9 °F 74.8 °F 76.9 °F
Humidity: 97 % 65 % 85 %
Wind Speed: 8.0 mph 0.0 mph 0.8 mph
Wind Gust: 13.0 mph - -
Wind:- - South
Pressure: 30.03 in 29.93 in -
Precipitation: 0.40 in    
Historical Graphs
 
 
Tabular Data for August 4, 2017
Time Temperature Dew Point Pressure Wind Wind Speed Wind Gust Humidity Rainfall Rate (Hourly)
00:01 79.3 °F 76.1 °F 29.99 in Calm   1.0 mph 90 % 0.00 in
00:06 79.3 °F 76.1 °F 29.99 in Calm   1.0 mph 90 % 0.00 in
00:11 79.3 °F 76.1 °F 29.99 in ESE 1.0 mph   90 % 0.00 in
00:16 79.2 °F 75.9 °F 30.00 in Calm   1.0 mph 90 % 0.00 in
00:21 79.0 °F 75.7 °F 30.00 in Calm   1.0 mph 90 % 0.00 in
00:26 78.8 °F 75.9 °F 30.00 in Calm   1.0 mph 91 % 0.00 in
00:32 78.6 °F 75.7 °F 30.00 in Calm     91 % 0.00 in
00:37 78.6 °F 75.7 °F 30.00 in Calm     91 % 0.00 in
00:41 78.4 °F 75.6 °F 30.00 in Calm     91 % 0.00 in
00:47 78.4 °F 75.9 °F 30.00 in Calm     92 % 0.00 in
00:52 78.4 °F 75.9 °F 30.00 in Calm     92 % 0.00 in
00:57 78.4 °F 75.9 °F 30.00 in Calm     92 % 0.00 in
01:02 78.3 °F 75.7 °F 30.00 in Calm     92 % 0.00 in
01:07 78.3 °F 75.7 °F 30.00 in Calm     92 % 0.00 in
01:12 78.3 °F 75.7 °F 30.00 in Calm     92 % 0.00 in
01:17 78.3 °F 76.1 °F 30.00 in Calm     93 % 0.00 in
01:22 78.3 °F 76.1 °F 30.00 in Calm     93 % 0.00 in
01:27 78.3 °F 76.1 °F 30.00 in Calm     93 % 0.00 in
01:32 78.3 °F 76.1 °F 30.00 in Calm     93 % 0.00 in
01:37 78.3 °F 76.1 °F 30.00 in Calm     93 % 0.00 in
01:42 78.1 °F 75.9 °F 30.00 in Calm     93 % 0.00 in
01:47 78.1 °F 76.3 °F 30.00 in Calm     94 % 0.00 in
01:52 78.3 °F 76.5 °F 30.00 in Calm     94 % 0.00 in
01:57 78.3 °F 76.5 °F 30.00 in Calm     94 % 0.00 in
02:02 78.3 °F 76.5 °F 30.00 in Calm     94 % 0.00 in
02:07 78.3 °F 76.5 °F 30.00 in Calm     94 % 0.00 in
02:12 78.3 °F 76.5 °F 30.00 in Calm     94 % 0.00 in
02:17 78.4 °F 76.6 °F 30.00 in Calm     94 % 0.00 in
02:22 78.4 °F 76.6 °F 30.00 in Calm     94 % 0.00 in
02:27 78.4 °F 76.6 °F 30.00 in Calm     94 % 0.00 in
02:32 78.6 °F 76.8 °F 30.00 in Calm     94 % 0.00 in
02:37 78.6 °F 76.8 °F 30.00 in Calm   2.0 mph 94 % 0.00 in
02:42 78.6 °F 76.8 °F 30.00 in Calm   3.0 mph 94 % 0.00 in
02:47 78.6 °F 76.8 °F 30.00 in Calm   3.0 mph 94 % 0.00 in
02:52 78.6 °F 76.8 °F 30.00 in Calm   3.0 mph 94 % 0.00 in
02:54 78.6 °F 76.8 °F 30.00 in South 2.0 mph 3.0 mph 94 % 0.00 in
02:59 78.6 °F 76.8 °F 30.00 in Calm   2.0 mph 94 % 0.00 in
03:04 78.6 °F 76.8 °F 30.00 in Calm   2.0 mph 94 % 0.00 in
03:09 78.8 °F 77.0 °F 30.00 in Calm   2.0 mph 94 % 0.00 in
03:14 78.8 °F 77.0 °F 30.00 in Calm   1.0 mph 94 % 0.00 in
03:19 78.8 °F 77.0 °F 30.00 in Calm     94 % 0.00 in
03:24 78.8 °F 77.0 °F 30.00 in Calm     94 % 0.00 in
03:29 78.6 °F 76.8 °F 30.00 in Calm     94 % 0.00 in
03:34 78.6 °F 76.8 °F 30.00 in Calm     94 % 0.00 in
03:39 78.6 °F 76.8 °F 30.00 in Calm     94 % 0.00 in
03:44 78.4 °F 76.6 °F 30.00 in Calm     94 % 0.00 in
03:49 78.4 °F 76.6 °F 29.99 in Calm     94 % 0.00 in
03:54 78.3 °F 76.5 °F 29.99 in Calm     94 % 0.00 in
03:59 78.3 °F 76.5 °F 29.99 in Calm     94 % 0.00 in
04:04 78.1 °F 76.3 °F 29.99 in Calm     94 % 0.00 in
04:09 78.1 °F 76.3 °F 29.99 in Calm     94 % 0.00 in
04:14 77.9 °F 76.1 °F 29.99 in Calm     94 % 0.00 in
04:19 77.9 °F 76.1 °F 29.99 in Calm     94 % 0.00 in
04:24 77.9 °F 76.1 °F 29.98 in Calm     94 % 0.00 in
04:29 77.7 °F 75.9 °F 29.98 in Calm     94 % 0.00 in
04:34 77.7 °F 75.9 °F 29.98 in Calm     94 % 0.00 in
04:39 77.7 °F 75.9 °F 29.98 in Calm     94 % 0.00 in
04:44 77.7 °F 75.9 °F 29.98 in Calm     94 % 0.00 in
04:49 77.5 °F 75.7 °F 29.98 in Calm     94 % 0.00 in
04:54 77.5 °F 75.9 °F 29.98 in Calm     95 % 0.00 in
04:59 77.5 °F 75.9 °F 29.98 in Calm     95 % 0.00 in
05:04 77.5 °F 75.9 °F 29.98 in Calm     95 % 0.00 in
05:09 77.4 °F 75.7 °F 29.98 in Calm     95 % 0.00 in
05:14 77.2 °F 75.6 °F 29.98 in Calm     95 % 0.00 in
05:19 77.2 °F 75.6 °F 29.98 in Calm     95 % 0.00 in
05:24 77.0 °F 75.4 °F 29.99 in Calm     95 % 0.00 in
05:29 76.8 °F 75.2 °F 29.98 in Calm     95 % 0.00 in
05:34 76.8 °F 75.2 °F 29.98 in Calm     95 % 0.00 in
05:40 76.8 °F 75.2 °F 29.98 in Calm     95 % 0.00 in
05:45 76.6 °F 75.0 °F 29.98 in Calm     95 % 0.00 in
05:50 76.6 °F 75.0 °F 29.98 in Calm     95 % 0.00 in
05:55 76.5 °F 75.2 °F 29.99 in Calm     96 % 0.00 in
06:00 76.6 °F 75.4 °F 29.99 in Calm     96 % 0.00 in
06:05 76.6 °F 75.4 °F 29.99 in Calm     96 % 0.00 in
06:10 76.6 °F 75.4 °F 29.99 in Calm     96 % 0.00 in
06:11 76.6 °F 75.4 °F 29.99 in Calm     96 % 0.00 in
06:16 76.6 °F 75.4 °F 29.99 in Calm     96 % 0.00 in
06:21 76.5 °F 75.2 °F 29.99 in Calm     96 % 0.00 in
06:26 76.5 °F 75.2 °F 29.99 in Calm     96 % 0.00 in
06:31 76.6 °F 75.4 °F 29.99 in Calm     96 % 0.00 in
06:36 76.6 °F 75.4 °F 29.99 in Calm     96 % 0.00 in
06:41 76.6 °F 75.4 °F 29.99 in Calm     96 % 0.00 in
06:46 76.5 °F 75.2 °F 29.99 in Calm     96 % 0.00 in
06:51 76.3 °F 75.0 °F 29.99 in Calm     96 % 0.00 in
06:56 76.3 °F 75.0 °F 29.99 in Calm     96 % 0.00 in
07:01 76.5 °F 75.6 °F 29.99 in Calm     97 % 0.00 in
07:06 76.6 °F 75.7 °F 29.99 in Calm     97 % 0.00 in
07:11 76.6 °F 75.7 °F 29.99 in Calm     97 % 0.00 in
07:16 76.8 °F 75.9 °F 29.99 in Calm     97 % 0.00 in
07:21 76.8 °F 75.9 °F 29.99 in Calm     97 % 0.00 in
07:26 77.2 °F 76.3 °F 29.99 in Calm     97 % 0.00 in
07:31 77.7 °F 76.8 °F 29.99 in Calm     97 % 0.00 in
07:36 78.3 °F 77.4 °F 29.99 in Calm     97 % 0.00 in
07:41 79.0 °F 78.1 °F 29.99 in Calm     97 % 0.00 in
07:46 79.5 °F 78.6 °F 29.99 in Calm     97 % 0.00 in
07:51 80.1 °F 79.2 °F 30.00 in Calm     97 % 0.00 in
07:56 80.6 °F 79.3 °F 29.99 in Calm     96 % 0.00 in
08:01 80.1 °F 77.9 °F 30.00 in Calm   3.0 mph 93 % 0.00 in
08:07 80.1 °F 77.9 °F 30.00 in Calm   3.0 mph 93 % 0.00 in
08:12 80.4 °F 78.3 °F 30.00 in Calm   3.0 mph 93 % 0.00 in
08:17 80.8 °F 78.3 °F 30.00 in West 1.0 mph 3.0 mph 92 % 0.00 in
08:22 81.1 °F 78.3 °F 30.00 in Calm   3.0 mph 91 % 0.00 in
08:27 81.9 °F 78.6 °F 30.00 in WSW 1.0 mph 3.0 mph 90 % 0.00 in
08:32 82.2 °F 78.6 °F 30.00 in WNW 2.0 mph 3.0 mph 89 % 0.00 in
08:33 82.4 °F 78.4 °F 30.00 in Calm   3.0 mph 88 % 0.00 in
08:38 82.9 °F 78.3 °F 30.00 in Calm   3.0 mph 86 % 0.00 in
08:43 83.8 °F 78.8 °F 30.00 in Calm   3.0 mph 85 % 0.00 in
08:48 84.4 °F 78.6 °F 30.00 in NW 2.0 mph 2.0 mph 83 % 0.00 in
08:53 84.2 °F 78.8 °F 30.01 in Calm   4.0 mph 84 % 0.00 in
08:58 84.4 °F 78.3 °F 30.01 in Calm   4.0 mph 82 % 0.00 in
09:03 84.6 °F 78.4 °F 30.01 in WNW 1.0 mph 4.0 mph 82 % 0.00 in
09:08 85.3 °F 79.2 °F 30.01 in Calm   4.0 mph 82 % 0.00 in
09:13 86.0 °F 79.5 °F 30.01 in North 2.0 mph 4.0 mph 81 % 0.00 in
09:18 85.6 °F 78.4 °F 30.01 in NNW 4.0 mph 4.0 mph 79 % 0.00 in
09:23 85.6 °F 78.4 °F 30.01 in NW 2.0 mph 5.0 mph 79 % 0.00 in
09:28 85.5 °F 78.6 °F 30.01 in NW 1.0 mph 5.0 mph 80 % 0.00 in
09:33 85.8 °F 79.0 °F 30.02 in Calm   5.0 mph 80 % 0.00 in
09:38 86.4 °F 79.0 °F 30.02 in West 1.0 mph 5.0 mph 79 % 0.00 in
09:43 86.4 °F 78.6 °F 30.02 in West 1.0 mph 5.0 mph 78 % 0.00 in
09:48 86.0 °F 78.3 °F 30.02 in NNW 5.0 mph 7.0 mph 78 % 0.00 in
09:53 86.2 °F 78.4 °F 30.02 in Calm   7.0 mph 78 % 0.00 in
09:58 87.1 °F 79.0 °F 30.03 in Calm   7.0 mph 77 % 0.00 in
10:03 87.6 °F 78.6 °F 30.03 in West 1.0 mph 6.0 mph 75 % 0.00 in
10:08 87.4 °F 79.3 °F 30.03 in SSW 3.0 mph 5.0 mph 77 % 0.00 in
10:13 88.0 °F 79.5 °F 30.03 in SSW 2.0 mph 5.0 mph 76 % 0.00 in
10:18 88.3 °F 79.3 °F 30.03 in SE 2.0 mph 6.0 mph 75 % 0.00 in
10:23 88.9 °F 79.9 °F 30.03 in South 1.0 mph 6.0 mph 75 % 0.00 in
10:28 89.8 °F 79.5 °F 30.03 in Calm   6.0 mph 72 % 0.00 in
10:33 90.0 °F 79.7 °F 30.03 in Calm   4.0 mph 72 % 0.00 in
10:38 89.8 °F 79.2 °F 30.03 in SSE 2.0 mph 5.0 mph 71 % 0.00 in
10:43 89.4 °F 78.8 °F 30.03 in WSW 1.0 mph 5.0 mph 71 % 0.00 in
10:48 88.9 °F 77.4 °F 30.03 in Calm   5.0 mph 69 % 0.00 in
10:53 88.3 °F 78.1 °F 30.03 in Calm   4.0 mph 72 % 0.00 in
10:58 88.3 °F 78.1 °F 30.03 in Calm   4.0 mph 72 % 0.00 in
11:03 88.9 °F 78.3 °F 30.03 in Calm   4.0 mph 71 % 0.00 in
11:08 89.4 °F 79.7 °F 30.03 in Calm   4.0 mph 73 % 0.00 in
11:13 90.9 °F 78.4 °F 30.03 in SSW 1.0 mph 3.0 mph 67 % 0.00 in
11:18 91.2 °F 78.3 °F 30.03 in SW 2.0 mph 3.0 mph 66 % 0.00 in
11:23 91.4 °F 78.4 °F 30.03 in South 3.0 mph 6.0 mph 66 % 0.00 in
11:29 91.2 °F 78.3 °F 30.02 in South 3.0 mph 6.0 mph 66 % 0.00 in
11:34 91.2 °F 78.3 °F 30.03 in NW 3.0 mph 7.0 mph 66 % 0.00 in
11:39 90.7 °F 77.4 °F 30.02 in NW 3.0 mph 7.0 mph 65 % 0.00 in
11:44 90.1 °F 78.6 °F 30.02 in Calm   7.0 mph 69 % 0.00 in
11:49 90.5 °F 77.5 °F 30.02 in NW 1.0 mph 6.0 mph 66 % 0.00 in
11:54 90.7 °F 77.7 °F 30.02 in NW 1.0 mph 5.0 mph 66 % 0.00 in
11:59 90.7 °F 77.7 °F 30.02 in NW 4.0 mph 4.0 mph 66 % 0.00 in
12:04 90.7 °F 77.7 °F 30.02 in NNW 3.0 mph 4.0 mph 66 % 0.00 in
12:09 90.5 °F 77.5 °F 30.02 in WNW 2.0 mph 4.0 mph 66 % 0.00 in
12:14 90.7 °F 77.4 °F 30.02 in NW 3.0 mph 6.0 mph 65 % 0.00 in
12:19 89.4 °F 77.5 °F 30.02 in NW 3.0 mph 6.0 mph 68 % 0.00 in
12:24 88.0 °F 77.4 °F 30.02 in WNW 5.0 mph 13.0 mph 71 % 0.00 in
12:29 85.8 °F 77.0 °F 30.03 in West 8.0 mph 13.0 mph 75 % 0.00 in
12:34 83.1 °F 77.4 °F 30.03 in North 3.0 mph 13.0 mph 83 % 0.06 in
12:39 81.7 °F 77.7 °F 30.03 in NW 3.0 mph 12.0 mph 88 % 0.23 in
12:44 80.4 °F 76.5 °F 30.03 in NNW 3.0 mph 12.0 mph 88 % 0.28 in
12:49 79.5 °F 76.3 °F 30.03 in NW 2.0 mph 9.0 mph 90 % 0.30 in
12:54 79.3 °F 76.5 °F 30.03 in NE 1.0 mph 6.0 mph 91 % 0.34 in
12:59 78.6 °F 75.7 °F 30.03 in North 3.0 mph 5.0 mph 91 % 0.40 in
13:01 78.4 °F 75.6 °F 30.03 in Calm   4.0 mph 91 % 0.40 in
13:06 78.3 °F 75.7 °F 30.03 in Calm   4.0 mph 92 % 0.40 in
13:11 78.3 °F 75.7 °F 30.03 in Calm   4.0 mph 92 % 0.40 in
13:16 78.3 °F 76.1 °F 30.03 in Calm   2.0 mph 93 % 0.40 in
13:21 78.4 °F 76.3 °F 30.03 in Calm   2.0 mph 93 % 0.40 in
13:26 79.0 °F 77.2 °F 30.02 in Calm   2.0 mph 94 % 0.40 in
13:31 79.3 °F 77.2 °F 30.02 in Calm   2.0 mph 93 % 0.34 in
13:36 79.5 °F 77.4 °F 30.02 in Calm   1.0 mph 93 % 0.17 in
13:41 79.5 °F 77.0 °F 30.01 in ESE 1.0 mph 2.0 mph 92 % 0.12 in
13:47 79.7 °F 77.2 °F 30.01 in Calm   2.0 mph 92 % 0.10 in
13:52 80.1 °F 77.2 °F 30.01 in ESE 1.0 mph 2.0 mph 91 % 0.05 in
13:57 80.4 °F 77.5 °F 30.01 in Calm   2.0 mph 91 % 0.00 in
14:02 80.8 °F 77.5 °F 30.01 in Calm   2.0 mph 90 % 0.00 in
14:07 81.1 °F 77.9 °F 30.01 in Calm   3.0 mph 90 % 0.00 in
14:12 81.1 °F 77.2 °F 30.01 in Calm   3.0 mph 88 % 0.00 in
14:17 81.3 °F 77.0 °F 30.01 in ESE 2.0 mph 4.0 mph 87 % 0.00 in
14:22 81.7 °F 77.0 °F 30.01 in ESE 1.0 mph 5.0 mph 86 % 0.00 in
14:27 82.0 °F 77.0 °F 30.00 in Calm   5.0 mph 85 % 0.00 in
14:32 82.2 °F 77.2 °F 30.00 in Calm   5.0 mph 85 % 0.00 in
14:37 82.6 °F 76.8 °F 30.00 in Calm   3.0 mph 83 % 0.00 in
14:42 82.8 °F 77.0 °F 30.00 in Calm   2.0 mph 83 % 0.00 in
14:47 82.9 °F 77.2 °F 30.00 in ESE 4.0 mph 4.0 mph 83 % 0.00 in
14:52 82.8 °F 76.6 °F 29.99 in ENE 1.0 mph 5.0 mph 82 % 0.00 in
14:57 82.9 °F 76.8 °F 29.99 in ENE 1.0 mph 5.0 mph 82 % 0.00 in
15:02 83.3 °F 77.2 °F 29.99 in Calm   5.0 mph 82 % 0.00 in
15:07 83.5 °F 76.6 °F 29.99 in Calm   3.0 mph 80 % 0.00 in
15:12 84.0 °F 77.2 °F 29.99 in East 1.0 mph 3.0 mph 80 % 0.00 in
15:17 84.6 °F 77.4 °F 29.98 in Calm   3.0 mph 79 % 0.00 in
15:22 84.9 °F 76.8 °F 29.98 in Calm   2.0 mph 77 % 0.00 in
15:27 85.3 °F 76.8 °F 29.98 in ESE 2.0 mph 2.0 mph 76 % 0.00 in
15:32 85.5 °F 76.6 °F 29.98 in Calm   3.0 mph 75 % 0.00 in
15:37 85.6 °F 76.8 °F 29.97 in East 1.0 mph 3.0 mph 75 % 0.00 in
15:42 85.8 °F 77.0 °F 29.97 in Calm   3.0 mph 75 % 0.00 in
15:47 85.8 °F 77.0 °F 29.97 in ESE 1.0 mph 1.0 mph 75 % 0.00 in
15:52 85.6 °F 76.5 °F 29.97 in ESE 2.0 mph 2.0 mph 74 % 0.00 in
15:57 85.5 °F 76.6 °F 29.97 in SSE 1.0 mph 3.0 mph 75 % 0.00 in
16:02 85.6 °F 77.2 °F 29.97 in East 1.0 mph 3.0 mph 76 % 0.00 in
16:07 85.6 °F 76.8 °F 29.97 in Calm   3.0 mph 75 % 0.00 in
16:12 85.8 °F 77.4 °F 29.96 in Calm   2.0 mph 76 % 0.00 in
16:17 85.6 °F 76.8 °F 29.96 in ESE 2.0 mph 3.0 mph 75 % 0.00 in
16:22 85.8 °F 78.1 °F 29.96 in East 2.0 mph 3.0 mph 78 % 0.00 in
16:27 86.0 °F 77.2 °F 29.96 in SE 2.0 mph 3.0 mph 75 % 0.00 in
16:32 86.2 °F 75.2 °F 29.96 in East 1.0 mph 4.0 mph 70 % 0.00 in
16:37 86.5 °F 76.5 °F 29.95 in SE 1.0 mph 4.0 mph 72 % 0.00 in
16:42 87.1 °F 77.0 °F 29.95 in Calm   4.0 mph 72 % 0.00 in
16:47 87.8 °F 77.2 °F 29.95 in SE 3.0 mph 3.0 mph 71 % 0.00 in
16:52 88.2 °F 77.2 °F 29.95 in Calm   4.0 mph 70 % 0.00 in
16:57 88.9 °F 77.4 °F 29.95 in Calm   4.0 mph 69 % 0.00 in
17:02 89.4 °F 77.5 °F 29.94 in NE 1.0 mph 4.0 mph 68 % 0.00 in
17:07 89.8 °F 77.7 °F 29.94 in ENE 1.0 mph 4.0 mph 68 % 0.00 in
17:12 90.1 °F 77.7 °F 29.94 in East 4.0 mph 4.0 mph 67 % 0.00 in
17:17 89.8 °F 77.7 °F 29.94 in ENE 1.0 mph 5.0 mph 68 % 0.00 in
17:22 90.0 °F 77.0 °F 29.94 in SE 2.0 mph 5.0 mph 66 % 0.00 in
17:27 90.1 °F 77.2 °F 29.94 in ENE 2.0 mph 5.0 mph 66 % 0.00 in
17:32 90.3 °F 77.4 °F 29.94 in ENE 2.0 mph 5.0 mph 66 % 0.00 in
17:37 90.0 °F 77.0 °F 29.94 in East 2.0 mph 6.0 mph 66 % 0.00 in
17:42 90.0 °F 77.0 °F 29.94 in NE 1.0 mph 6.0 mph 66 % 0.00 in
17:47 89.8 °F 76.8 °F 29.93 in SE 4.0 mph 6.0 mph 66 % 0.00 in
17:52 89.4 °F 76.6 °F 29.94 in Calm   7.0 mph 66 % 0.00 in
17:57 89.2 °F 77.4 °F 29.94 in SSE 1.0 mph 8.0 mph 68 % 0.00 in
18:02 89.4 °F 77.5 °F 29.94 in SE 4.0 mph 8.0 mph 68 % 0.00 in
18:07 89.2 °F 76.8 °F 29.94 in East 3.0 mph 9.0 mph 67 % 0.00 in
18:12 89.1 °F 77.5 °F 29.94 in SE 3.0 mph 9.0 mph 69 % 0.00 in
18:17 89.1 °F 77.2 °F 29.94 in ESE 5.0 mph 9.0 mph 68 % 0.00 in
18:22 88.9 °F 77.0 °F 29.94 in ESE 3.0 mph 7.0 mph 68 % 0.00 in
18:27 88.9 °F 77.4 °F 29.94 in SSE 3.0 mph 7.0 mph 69 % 0.00 in
18:32 88.9 °F 77.9 °F 29.94 in East 3.0 mph 9.0 mph 70 % 0.00 in
18:37 88.3 °F 77.7 °F 29.94 in East 2.0 mph 10.0 mph 71 % 0.00 in
18:42 88.0 °F 77.9 °F 29.94 in East 5.0 mph 10.0 mph 72 % 0.00 in
18:47 87.6 °F 78.3 °F 29.94 in East 2.0 mph 10.0 mph 74 % 0.00 in
18:52 87.4 °F 78.1 °F 29.93 in East 4.0 mph 10.0 mph 74 % 0.00 in
18:57 87.3 °F 78.8 °F 29.94 in South 4.0 mph 10.0 mph 76 % 0.00 in
19:02 87.1 °F 79.0 °F 29.94 in East 4.0 mph 10.0 mph 77 % 0.00 in
19:07 86.5 °F 78.4 °F 29.94 in SSE 4.0 mph 10.0 mph 77 % 0.00 in
19:12 86.2 °F 78.1 °F 29.94 in South 4.0 mph 8.0 mph 77 % 0.00 in
19:17 85.8 °F 77.7 °F 29.94 in ESE 1.0 mph 8.0 mph 77 % 0.00 in
19:22 85.6 °F 77.5 °F 29.95 in SE 5.0 mph 8.0 mph 77 % 0.00 in
19:27 85.3 °F 77.2 °F 29.94 in SE 4.0 mph 7.0 mph 77 % 0.00 in
19:32 85.1 °F 77.0 °F 29.94 in Calm   7.0 mph 77 % 0.00 in
19:37 84.9 °F 77.4 °F 29.95 in East 1.0 mph 7.0 mph 78 % 0.00 in
19:42 84.7 °F 77.2 °F 29.95 in East 1.0 mph 6.0 mph 78 % 0.00 in
19:47 84.6 °F 77.0 °F 29.95 in ESE 1.0 mph 6.0 mph 78 % 0.00 in
19:52 84.4 °F 77.2 °F 29.95 in Calm   5.0 mph 79 % 0.00 in
19:57 84.2 °F 77.0 °F 29.95 in Calm   4.0 mph 79 % 0.00 in
20:00 84.0 °F 76.8 °F 29.95 in SSE 2.0 mph 4.0 mph 79 % 0.00 in
20:05 83.8 °F 76.6 °F 29.95 in East 1.0 mph 3.0 mph 79 % 0.00 in
20:10 83.7 °F 76.8 °F 29.95 in Calm   3.0 mph 80 % 0.00 in
20:15 83.5 °F 76.6 °F 29.95 in Calm   3.0 mph 80 % 0.00 in
20:20 83.1 °F 76.3 °F 29.95 in Calm   1.0 mph 80 % 0.00 in
20:25 82.9 °F 76.5 °F 29.95 in Calm   1.0 mph 81 % 0.00 in
20:30 82.8 °F 76.3 °F 29.95 in Calm   2.0 mph 81 % 0.00 in
20:36 82.6 °F 76.1 °F 29.95 in Calm   2.0 mph 81 % 0.00 in
20:41 82.2 °F 76.1 °F 29.95 in Calm   2.0 mph 82 % 0.00 in
20:46 82.0 °F 76.3 °F 29.96 in Calm   1.0 mph 83 % 0.00 in
20:51 81.9 °F 76.1 °F 29.95 in Calm   2.0 mph 83 % 0.00 in
20:56 81.9 °F 76.1 °F 29.96 in Calm   2.0 mph 83 % 0.00 in
21:01 81.7 °F 76.3 °F 29.96 in Calm   2.0 mph 84 % 0.00 in
21:06 81.7 °F 76.3 °F 29.96 in Calm   2.0 mph 84 % 0.00 in
21:11 81.5 °F 76.3 °F 29.96 in Calm   2.0 mph 84 % 0.00 in
21:16 81.3 °F 76.1 °F 29.97 in Calm   2.0 mph 84 % 0.00 in
21:21 81.1 °F 76.3 °F 29.97 in Calm   2.0 mph 85 % 0.00 in
21:26 81.0 °F 76.1 °F 29.97 in Calm   1.0 mph 85 % 0.00 in
21:31 81.0 °F 76.1 °F 29.97 in ESE 1.0 mph 2.0 mph 85 % 0.00 in
21:36 81.0 °F 76.5 °F 29.98 in Calm   2.0 mph 86 % 0.00 in
21:41 81.0 °F 76.5 °F 29.98 in Calm   2.0 mph 86 % 0.00 in
21:46 81.0 °F 76.5 °F 29.98 in Calm   2.0 mph 86 % 0.00 in
21:51 81.0 °F 76.5 °F 29.98 in Calm   1.0 mph 86 % 0.00 in
21:56 80.8 °F 76.3 °F 29.98 in Calm   1.0 mph 86 % 0.00 in
22:01 80.8 °F 76.5 °F 29.98 in Calm   1.0 mph 87 % 0.00 in
22:06 80.8 °F 76.5 °F 29.98 in ESE 1.0 mph 2.0 mph 87 % 0.00 in
22:11 80.8 °F 76.5 °F 29.98 in Calm   2.0 mph 87 % 0.00 in
22:16 81.0 °F 77.0 °F 29.99 in SE 1.0 mph 3.0 mph 88 % 0.00 in
22:20 81.0 °F 77.0 °F 29.98 in Calm   3.0 mph 88 % 0.00 in
22:22 81.0 °F 77.0 °F 29.98 in Calm   3.0 mph 88 % 0.00 in
22:25 80.8 °F 76.8 °F 29.99 in ESE 1.0 mph 3.0 mph 88 % 0.00 in
22:26 80.8 °F 76.8 °F 29.99 in East 1.0 mph 3.0 mph 88 % 0.00 in
22:31 80.8 °F 76.8 °F 29.99 in Calm   3.0 mph 88 % 0.00 in
22:36 80.8 °F 77.2 °F 29.99 in ESE 1.0 mph 2.0 mph 89 % 0.00 in
22:41 80.6 °F 77.0 °F 29.99 in Calm   2.0 mph 89 % 0.00 in
22:46 80.4 °F 76.8 °F 29.99 in Calm   2.0 mph 89 % 0.00 in
22:51 80.4 °F 76.8 °F 29.99 in SE 1.0 mph 1.0 mph 89 % 0.00 in
22:56 80.4 °F 76.8 °F 29.99 in Calm   2.0 mph 89 % 0.00 in
23:01 80.2 °F 76.6 °F 29.99 in Calm   2.0 mph 89 % 0.00 in
23:07 80.2 °F 76.6 °F 29.99 in Calm   2.0 mph 89 % 0.00 in
23:12 80.1 °F 76.5 °F 29.99 in Calm   1.0 mph 89 % 0.00 in
23:17 79.9 °F 76.3 °F 29.99 in Calm   1.0 mph 89 % 0.00 in
23:22 79.9 °F 76.3 °F 29.99 in Calm   1.0 mph 89 % 0.00 in
23:27 79.5 °F 75.9 °F 29.99 in Calm   1.0 mph 89 % 0.00 in
23:32 79.5 °F 75.6 °F 29.99 in Calm   2.0 mph 88 % 0.00 in
23:37 79.5 °F 75.6 °F 29.99 in SE 1.0 mph 2.0 mph 88 % 0.00 in
23:42 79.3 °F 75.2 °F 29.99 in SE 1.0 mph 2.0 mph 87 % 0.00 in
23:47 79.5 °F 75.4 °F 29.99 in Calm   4.0 mph 87 % 0.00 in
23:52 79.5 °F 75.0 °F 29.99 in Calm   4.0 mph 86 % 0.00 in
23:57 79.3 °F 74.8 °F 29.98 in Calm   4.0 mph 86 % 0.00 in
Spring, Texas: Villages of Bridgestone
Compliments of Weather Underground - 2.75 mb

Script developed by  Jim McMurry - jmcmurry@mwt.net Adapted for the template by  Wim van der Kuil - Leuven-Template.eu

You find our weather info also at:

UK Metoffice

WeatherCloud

Weather Underground

Mid-South Weather Network

AWEKAS

Citizen Weather Observer Program (CWOP)

HAMweather, WeatherForYou, PWS Weather

Equipment we use:

Weather-station
Davis Vantage Vue

Weather-program
Meteohub

Weather-server
Debian 7.9 x86 (Guest)

Provider
DreamHost

Davis Vantage Vue

Meteohub

Debian 7.9 x86 (Guest)

DreamHost